createdAt,value
2023-04-02T00:01:37.389Z,100.00
2023-04-02T00:04:21.293Z,100.00
2023-04-02T00:07:09.409Z,100.00
2023-04-02T00:09:37.399Z,100.00
2023-04-02T00:12:18.450Z,100.00
2023-04-02T00:14:47.794Z,100.00
2023-04-02T00:17:14.247Z,100.00
2023-04-02T00:19:57.690Z,100.00
2023-04-02T00:22:30.582Z,100.00
2023-04-02T00:25:00.422Z,100.00
2023-04-02T00:27:26.600Z,100.00
2023-04-02T00:29:55.528Z,100.00
2023-04-02T00:32:26.265Z,100.00
2023-04-02T00:34:54.245Z,100.00
2023-04-02T00:37:26.807Z,100.00
2023-04-02T00:40:08.936Z,100.00
2023-04-02T00:42:39.437Z,100.00
2023-04-02T00:45:18.010Z,100.00
2023-04-02T00:47:44.196Z,100.00
2023-04-02T00:50:16.447Z,100.00
2023-04-02T00:52:45.570Z,100.00
2023-04-02T00:55:38.684Z,100.00
2023-04-02T00:58:26.705Z,100.00
2023-04-02T01:00:53.882Z,100.00
2023-04-02T01:03:28.123Z,100.00
2023-04-02T01:06:02.228Z,100.00
2023-04-02T01:08:56.262Z,100.00
2023-04-02T01:11:26.277Z,100.00
2023-04-02T01:14:10.826Z,100.00
2023-04-02T01:16:53.283Z,100.00
2023-04-02T01:19:31.593Z,100.00
2023-04-02T01:22:20.180Z,100.00
2023-04-02T01:24:46.868Z,100.00
2023-04-02T01:27:42.590Z,100.00
2023-04-02T01:30:11.322Z,100.00
2023-04-02T01:32:38.725Z,100.00
2023-04-02T01:35:05.402Z,100.00
2023-04-02T01:37:51.132Z,100.00
2023-04-02T01:40:48.749Z,100.00
2023-04-02T01:43:40.803Z,100.00
2023-04-02T01:46:25.817Z,100.00
2023-04-02T01:48:54.505Z,100.00
2023-04-02T01:51:30.900Z,100.00
2023-04-02T01:54:01.251Z,100.00
2023-04-02T01:56:29.648Z,100.00
2023-04-02T01:58:57.880Z,100.00
2023-04-02T02:01:39.169Z,100.00
2023-04-02T02:04:06.900Z,100.00
2023-04-02T02:06:34.038Z,100.00
2023-04-02T02:09:03.649Z,100.00
2023-04-02T02:11:32.266Z,100.00
2023-04-02T02:14:01.050Z,100.00
2023-04-02T02:16:31.315Z,100.00
2023-04-02T02:19:02.003Z,100.00
2023-04-02T02:22:00.634Z,100.00
2023-04-02T02:24:31.058Z,100.00
2023-04-02T02:27:15.993Z,100.00
2023-04-02T02:29:44.814Z,100.00
2023-04-02T02:32:14.989Z,100.00
2023-04-02T02:34:48.484Z,100.00
2023-04-02T02:37:24.285Z,100.00
2023-04-02T02:39:55.526Z,100.00
2023-04-02T02:42:29.887Z,100.00
2023-04-02T02:44:57.831Z,100.00
2023-04-02T02:47:27.682Z,100.00
2023-04-02T02:49:59.159Z,100.00
2023-04-02T02:52:38.221Z,100.00
2023-04-02T02:55:15.545Z,100.00
2023-04-02T02:58:03.790Z,100.00
2023-04-02T03:00:37.714Z,100.00
2023-04-02T03:03:11.766Z,100.00
2023-04-02T03:05:41.026Z,100.00
2023-04-02T03:08:21.831Z,100.00
2023-04-02T03:11:01.838Z,100.00
2023-04-02T03:13:38.166Z,100.00
2023-04-02T03:16:22.789Z,100.00
2023-04-02T03:19:01.220Z,100.00
2023-04-02T03:21:56.596Z,100.00
2023-04-02T03:24:23.292Z,100.00
2023-04-02T03:26:57.437Z,100.00
2023-04-02T03:29:32.754Z,100.00
2023-04-02T03:32:05.904Z,100.00
2023-04-02T03:34:48.833Z,100.00
2023-04-02T03:37:29.069Z,100.00
2023-04-02T03:40:04.093Z,100.00
2023-04-02T03:42:41.845Z,100.00
2023-04-02T03:45:20.576Z,100.00
2023-04-02T03:48:00.595Z,100.00
2023-04-02T03:50:48.783Z,100.00
2023-04-02T03:53:15.589Z,100.00
2023-04-02T03:55:42.208Z,100.00
2023-04-02T03:58:20.098Z,100.00
2023-04-02T04:00:51.234Z,100.00
2023-04-02T04:03:26.306Z,100.00
2023-04-02T04:05:58.684Z,100.00
2023-04-02T04:08:33.174Z,100.00
2023-04-02T04:11:06.854Z,100.00
2023-04-02T04:13:46.422Z,100.00
2023-04-02T04:16:21.072Z,100.00
2023-04-02T04:19:02.497Z,100.00
2023-04-02T04:21:36.382Z,100.00
2023-04-02T04:24:24.022Z,100.00
2023-04-02T04:27:09.317Z,100.00
2023-04-02T04:29:48.638Z,100.00
2023-04-02T04:32:31.137Z,100.00
2023-04-02T04:35:07.419Z,100.00
2023-04-02T04:37:39.841Z,100.00
2023-04-02T04:40:19.382Z,100.00
2023-04-02T04:42:50.280Z,100.00
2023-04-02T04:45:33.792Z,100.00
2023-04-02T04:48:22.453Z,100.00
2023-04-02T04:51:07.670Z,100.00
2023-04-02T04:53:45.010Z,100.00
2023-04-02T04:56:19.309Z,100.00
2023-04-02T04:59:01.243Z,100.00
2023-04-02T05:01:28.108Z,100.00
2023-04-02T05:04:13.915Z,100.00
2023-04-02T05:07:08.471Z,100.00
2023-04-02T05:09:44.375Z,100.00
2023-04-02T05:12:28.992Z,100.00
2023-04-02T05:15:16.586Z,100.00
2023-04-02T05:18:06.490Z,100.00
2023-04-02T05:20:40.428Z,100.00
2023-04-02T05:23:13.387Z,100.00
2023-04-02T05:26:09.704Z,100.00
2023-04-02T05:28:50.969Z,100.00
2023-04-02T05:31:40.001Z,100.00
2023-04-02T05:34:08.984Z,99.97
2023-04-02T05:36:35.128Z,100.00
2023-04-02T05:39:01.742Z,100.00
2023-04-02T05:41:43.216Z,100.00
2023-04-02T05:44:21.245Z,100.00
2023-04-02T05:47:01.313Z,100.00
2023-04-02T05:49:38.735Z,100.00
2023-04-02T05:52:15.226Z,100.00
2023-04-02T05:54:50.943Z,100.00
2023-04-02T05:57:29.608Z,99.88
2023-04-02T06:00:13.171Z,100.00
2023-04-02T06:02:50.694Z,100.00
2023-04-02T06:05:23.189Z,100.00
2023-04-02T06:07:59.063Z,99.98
2023-04-02T06:10:32.150Z,100.00
2023-04-02T06:13:05.133Z,99.79
2023-04-02T06:15:38.059Z,100.00
2023-04-02T06:18:28.363Z,100.00
2023-04-02T06:20:57.315Z,100.00
2023-04-02T06:23:36.217Z,100.00
2023-04-02T06:26:21.962Z,100.00
2023-04-02T06:28:51.756Z,100.00
2023-04-02T06:31:35.771Z,100.00
2023-04-02T06:34:06.975Z,100.00
2023-04-02T06:36:34.624Z,99.65
2023-04-02T06:39:10.989Z,97.86
2023-04-02T06:41:38.903Z,98.32
2023-04-02T06:44:40.260Z,97.71
2023-04-02T06:47:38.710Z,97.75
2023-04-02T06:50:22.793Z,98.02
2023-04-02T06:52:55.976Z,97.59
2023-04-02T06:55:48.985Z,97.26
2023-04-02T06:58:20.609Z,97.14
2023-04-02T07:00:50.066Z,96.61
2023-04-02T07:03:27.617Z,96.97
2023-04-02T07:05:56.719Z,96.66
2023-04-02T07:08:23.578Z,97.20
2023-04-02T07:10:50.498Z,96.81
2023-04-02T07:13:20.718Z,96.33
2023-04-02T07:15:51.765Z,96.83
2023-04-02T07:18:33.196Z,97.48
2023-04-02T07:21:02.215Z,96.58
2023-04-02T07:23:28.895Z,95.91
2023-04-02T07:25:56.726Z,97.56
2023-04-02T07:28:24.240Z,97.11
2023-04-02T07:30:51.039Z,97.31
2023-04-02T07:33:21.672Z,97.13
2023-04-02T07:35:48.669Z,96.99
2023-04-02T07:38:15.969Z,96.88
2023-04-02T07:40:42.431Z,96.46
2023-04-02T07:43:09.673Z,96.15
2023-04-02T07:45:36.370Z,96.22
2023-04-02T07:48:08.284Z,96.40
2023-04-02T07:50:35.062Z,97.00
2023-04-02T07:53:02.258Z,96.76
2023-04-02T07:55:28.477Z,95.88
2023-04-02T07:57:57.709Z,95.79
2023-04-02T08:00:25.374Z,96.66
2023-04-02T08:02:52.804Z,95.67
2023-04-02T08:05:19.415Z,95.69
2023-04-02T08:07:56.196Z,97.03
2023-04-02T08:10:23.338Z,95.97
2023-04-02T08:12:49.916Z,96.04
2023-04-02T08:15:16.444Z,96.29
2023-04-02T08:17:43.714Z,96.62
2023-04-02T08:20:17.456Z,96.15
2023-04-02T08:22:48.312Z,95.95
2023-04-02T08:25:15.773Z,95.90
2023-04-02T08:27:42.411Z,95.35
2023-04-02T08:30:11.985Z,94.32
2023-04-02T08:32:40.397Z,93.94
2023-04-02T08:35:09.214Z,94.56
2023-04-02T08:37:35.937Z,94.67
2023-04-02T08:40:03.349Z,94.67
2023-04-02T08:42:59.753Z,94.34
2023-04-02T08:45:41.387Z,95.34
2023-04-02T08:48:11.101Z,95.30
2023-04-02T08:50:41.394Z,94.41
2023-04-02T08:53:22.200Z,94.66
2023-04-02T08:55:55.008Z,94.75
2023-04-02T08:58:41.027Z,92.82
2023-04-02T09:01:18.392Z,93.02
2023-04-02T09:03:49.901Z,92.06
2023-04-02T09:06:19.392Z,91.71
2023-04-02T09:08:48.296Z,91.54
2023-04-02T09:11:21.016Z,91.79
2023-04-02T09:13:53.669Z,91.34
2023-04-02T09:16:33.537Z,92.16
2023-04-02T09:19:01.704Z,92.35
2023-04-02T09:21:40.701Z,91.89
2023-04-02T09:24:12.355Z,91.92
2023-04-02T09:26:41.110Z,91.44
2023-04-02T09:29:07.836Z,91.68
2023-04-02T09:31:38.681Z,92.41
2023-04-02T09:34:34.790Z,90.87
2023-04-02T09:37:24.699Z,91.62
2023-04-02T09:39:51.513Z,91.40
2023-04-02T09:42:35.529Z,91.37
2023-04-02T09:45:31.994Z,91.94
2023-04-02T09:47:58.427Z,91.85
2023-04-02T09:50:27.406Z,92.16
2023-04-02T09:52:53.729Z,91.61
2023-04-02T09:55:30.438Z,90.92
2023-04-02T09:58:26.121Z,91.63
2023-04-02T10:00:53.475Z,91.96
2023-04-02T10:03:25.912Z,92.30
2023-04-02T10:06:13.869Z,91.65
2023-04-02T10:08:42.706Z,91.19
2023-04-02T10:11:19.003Z,91.23
2023-04-02T10:13:59.824Z,90.90
2023-04-02T10:16:55.666Z,89.84
2023-04-02T10:19:33.104Z,90.06
2023-04-02T10:22:04.502Z,90.04
2023-04-02T10:24:30.729Z,90.27
2023-04-02T10:27:29.584Z,90.84
2023-04-02T10:30:18.983Z,90.31
2023-04-02T10:33:04.311Z,91.16
2023-04-02T10:35:52.493Z,90.55
2023-04-02T10:38:38.098Z,89.76
2023-04-02T10:41:23.187Z,90.13
2023-04-02T10:43:57.826Z,89.04
2023-04-02T10:46:45.802Z,89.76
2023-04-02T10:49:31.188Z,90.31
2023-04-02T10:52:09.752Z,90.54
2023-04-02T10:54:49.600Z,90.72
2023-04-02T10:57:16.008Z,90.36
2023-04-02T10:59:48.924Z,90.57
2023-04-02T11:02:31.156Z,91.18
2023-04-02T11:05:02.983Z,90.47
2023-04-02T11:07:45.007Z,89.42
2023-04-02T11:10:16.549Z,89.32
2023-04-02T11:12:49.098Z,89.00
2023-04-02T11:15:18.576Z,89.13
2023-04-02T11:17:46.082Z,88.38
2023-04-02T11:20:42.817Z,88.56
2023-04-02T11:23:14.672Z,88.44
2023-04-02T11:25:42.486Z,89.42
2023-04-02T11:28:26.541Z,88.90
2023-04-02T11:30:54.391Z,88.25
2023-04-02T11:33:45.480Z,86.41
2023-04-02T11:36:55.069Z,86.45
2023-04-02T11:40:00.621Z,86.87
2023-04-02T11:42:36.080Z,86.71
2023-04-02T11:45:23.715Z,87.56
2023-04-02T11:48:12.989Z,86.62
2023-04-02T11:50:40.634Z,86.05
2023-04-02T11:53:10.166Z,85.97
2023-04-02T11:56:04.130Z,84.86
2023-04-02T11:58:37.250Z,86.10
2023-04-02T12:01:21.965Z,85.44
2023-04-02T12:04:10.469Z,84.83
2023-04-02T12:06:47.627Z,83.77
2023-04-02T12:09:33.588Z,84.60
2023-04-02T12:12:17.460Z,84.38
2023-04-02T12:14:46.435Z,84.84
2023-04-02T12:17:34.099Z,84.12
2023-04-02T12:20:01.223Z,84.24
2023-04-02T12:22:31.621Z,84.47
2023-04-02T12:25:04.706Z,84.79
2023-04-02T12:27:31.443Z,83.34
2023-04-02T12:30:20.342Z,83.54
2023-04-02T12:32:48.062Z,84.47
2023-04-02T12:35:27.530Z,83.66
2023-04-02T12:37:54.308Z,83.27
2023-04-02T12:40:21.020Z,82.92
2023-04-02T12:42:47.361Z,82.87
2023-04-02T12:45:25.247Z,82.41
2023-04-02T12:47:53.108Z,82.53
2023-04-02T12:50:21.713Z,82.71
2023-04-02T12:52:54.246Z,83.07
2023-04-02T12:55:24.755Z,82.54
2023-04-02T12:57:59.248Z,83.71
2023-04-02T13:00:29.021Z,81.34
2023-04-02T13:03:22.012Z,82.05
2023-04-02T13:05:54.740Z,83.05
2023-04-02T13:08:30.342Z,82.18
2023-04-02T13:11:02.153Z,84.11
2023-04-02T13:13:43.364Z,82.95
2023-04-02T13:16:18.786Z,81.37
2023-04-02T13:18:47.748Z,81.68
2023-04-02T13:21:16.507Z,81.94
2023-04-02T13:23:43.382Z,82.74
2023-04-02T13:26:31.066Z,82.57
2023-04-02T13:29:18.359Z,82.47
2023-04-02T13:31:44.916Z,82.94
2023-04-02T13:34:11.077Z,83.38
2023-04-02T13:36:37.622Z,83.56
2023-04-02T13:39:04.143Z,84.33
2023-04-02T13:41:35.880Z,84.91
2023-04-02T13:44:03.159Z,84.34
2023-04-02T13:46:33.132Z,84.13
2023-04-02T13:49:00.337Z,83.94
2023-04-02T13:51:41.408Z,85.52
2023-04-02T13:54:14.430Z,84.17
2023-04-02T13:56:41.113Z,83.91
2023-04-02T13:59:07.553Z,84.15
2023-04-02T14:01:34.489Z,84.44
2023-04-02T14:04:01.774Z,83.37
2023-04-02T14:06:54.496Z,83.13
2023-04-02T14:09:38.261Z,83.01
2023-04-02T14:12:45.280Z,83.74
2023-04-02T14:15:18.204Z,83.64
2023-04-02T14:17:48.486Z,82.32
2023-04-02T14:20:40.482Z,82.32
2023-04-02T14:23:26.601Z,82.78
2023-04-02T14:26:28.422Z,82.69
2023-04-02T14:29:13.824Z,82.86
2023-04-02T14:31:54.309Z,81.75
2023-04-02T14:34:42.197Z,81.24
2023-04-02T14:37:26.013Z,81.39
2023-04-02T14:40:18.522Z,80.09
2023-04-02T14:42:59.926Z,80.41
2023-04-02T14:45:53.884Z,79.95
2023-04-02T14:48:26.348Z,81.42
2023-04-02T14:51:00.939Z,80.43
2023-04-02T14:53:36.754Z,79.74
2023-04-02T14:56:07.940Z,79.92
2023-04-02T14:58:40.180Z,80.60
2023-04-02T15:01:14.648Z,80.58
2023-04-02T15:03:55.505Z,80.74
2023-04-02T15:06:31.454Z,80.43
2023-04-02T15:09:08.976Z,80.71
2023-04-02T15:11:41.096Z,80.52
2023-04-02T15:14:22.889Z,80.27
2023-04-02T15:16:49.705Z,78.88
2023-04-02T15:19:17.259Z,80.11
2023-04-02T15:22:06.863Z,79.11
2023-04-02T15:25:03.302Z,79.63
2023-04-02T15:28:01.294Z,81.68
2023-04-02T15:30:34.373Z,80.63
2023-04-02T15:33:41.233Z,79.77
2023-04-02T15:36:28.976Z,79.32
2023-04-02T15:39:33.533Z,78.93
2023-04-02T15:42:27.119Z,78.12
2023-04-02T15:45:11.977Z,77.83
2023-04-02T15:47:47.198Z,78.08
2023-04-02T15:50:26.094Z,78.01
2023-04-02T15:53:22.608Z,77.57
2023-04-02T15:56:02.883Z,77.69
2023-04-02T15:58:31.996Z,77.18
2023-04-02T16:01:21.312Z,77.02
2023-04-02T16:03:53.225Z,77.92
2023-04-02T16:06:25.434Z,78.06
2023-04-02T16:09:01.218Z,78.47
2023-04-02T16:11:28.141Z,78.16
2023-04-02T16:14:09.001Z,78.67
2023-04-02T16:16:36.279Z,77.56
2023-04-02T16:19:26.680Z,77.12
2023-04-02T16:22:11.109Z,76.92
2023-04-02T16:24:38.170Z,75.91
2023-04-02T16:27:50.727Z,74.79
2023-04-02T16:30:20.097Z,74.41
2023-04-02T16:33:19.220Z,73.84
2023-04-02T16:36:00.332Z,74.36
2023-04-02T16:38:54.621Z,74.66
2023-04-02T16:41:45.422Z,74.20
2023-04-02T16:44:20.673Z,73.65
2023-04-02T16:47:02.286Z,73.03
2023-04-02T16:49:51.514Z,73.57
2023-04-02T16:52:17.872Z,73.51
2023-04-02T16:55:12.143Z,74.57
2023-04-02T16:58:10.895Z,75.19
2023-04-02T17:00:49.480Z,75.54
2023-04-02T17:03:40.669Z,75.93
2023-04-02T17:06:35.578Z,75.23
2023-04-02T17:09:04.944Z,75.45
2023-04-02T17:11:56.709Z,75.97
2023-04-02T17:14:42.009Z,76.11
2023-04-02T17:17:14.803Z,75.74
2023-04-02T17:19:44.028Z,74.90
2023-04-02T17:22:20.742Z,74.88
2023-04-02T17:24:53.422Z,73.63
2023-04-02T17:27:43.302Z,74.51
2023-04-02T17:30:13.272Z,74.28
2023-04-02T17:32:40.397Z,73.53
2023-04-02T17:35:18.217Z,74.02
2023-04-02T17:38:00.990Z,74.52
2023-04-02T17:40:38.573Z,74.85
2023-04-02T17:43:26.086Z,74.51
2023-04-02T17:46:00.969Z,74.94
2023-04-02T17:48:42.968Z,75.85
2023-04-02T17:51:36.772Z,75.62
2023-04-02T17:54:20.184Z,75.95
2023-04-02T17:57:38.649Z,76.41
2023-04-02T18:00:32.582Z,76.28
2023-04-02T18:03:30.058Z,76.79
2023-04-02T18:05:56.906Z,76.33
2023-04-02T18:08:52.624Z,76.88
2023-04-02T18:11:39.411Z,77.57
2023-04-02T18:14:21.350Z,76.67
2023-04-02T18:17:06.917Z,76.48
2023-04-02T18:19:58.282Z,76.97
2023-04-02T18:22:51.990Z,77.14
2023-04-02T18:25:50.943Z,76.89
2023-04-02T18:28:59.396Z,77.97
2023-04-02T18:31:51.226Z,78.00
2023-04-02T18:34:51.482Z,77.80
2023-04-02T18:37:51.794Z,78.36
2023-04-02T18:40:46.417Z,78.19
2023-04-02T18:44:14.585Z,78.39
2023-04-02T18:46:58.546Z,78.86
2023-04-02T18:49:58.748Z,78.79
2023-04-02T18:52:50.350Z,79.33
2023-04-02T18:55:51.838Z,79.52
2023-04-02T18:58:48.769Z,79.33
2023-04-02T19:01:20.711Z,78.92
2023-04-02T19:03:52.477Z,80.23
2023-04-02T19:06:43.054Z,79.60
2023-04-02T19:09:26.440Z,79.61
2023-04-02T19:11:54.126Z,79.58
2023-04-02T19:14:22.580Z,78.94
2023-04-02T19:17:01.556Z,79.04
2023-04-02T19:19:43.004Z,79.16
2023-04-02T19:22:21.540Z,78.52
2023-04-02T19:25:17.959Z,78.55
2023-04-02T19:28:01.466Z,78.90
2023-04-02T19:30:37.407Z,77.71
2023-04-02T19:33:10.337Z,78.91
2023-04-02T19:36:01.560Z,78.90
2023-04-02T19:39:09.944Z,78.50
2023-04-02T19:41:53.227Z,79.29
2023-04-02T19:44:21.111Z,78.55
2023-04-02T19:46:50.664Z,78.45
2023-04-02T19:49:24.819Z,78.13
2023-04-02T19:51:52.945Z,78.42
2023-04-02T19:54:19.799Z,78.79
2023-04-02T19:56:47.820Z,78.83
2023-04-02T19:59:17.956Z,79.39
2023-04-02T20:01:49.738Z,79.03
2023-04-02T20:04:18.877Z,79.12
2023-04-02T20:06:47.769Z,79.39
2023-04-02T20:09:17.413Z,79.43
2023-04-02T20:12:29.890Z,78.59
2023-04-02T20:14:50.384Z,78.86
2023-04-02T20:17:20.082Z,78.92
2023-04-02T20:20:03.039Z,79.11
2023-04-02T20:22:32.939Z,78.80
2023-04-02T20:25:10.366Z,79.33
2023-04-02T20:27:38.982Z,79.76
2023-04-02T20:30:15.661Z,79.92
2023-04-02T20:32:52.124Z,79.51
2023-04-02T20:35:19.937Z,79.86
2023-04-02T20:37:47.643Z,80.40
2023-04-02T20:40:14.350Z,80.19
2023-04-02T20:42:42.178Z,80.38
2023-04-02T20:45:09.266Z,80.59
2023-04-02T20:47:36.124Z,81.02
2023-04-02T20:50:02.832Z,80.85
2023-04-02T20:52:29.632Z,81.33
2023-04-02T20:54:56.680Z,81.21
2023-04-02T20:57:24.865Z,81.18
2023-04-02T20:59:51.301Z,81.05
2023-04-02T21:02:18.127Z,81.89
2023-04-02T21:04:44.797Z,80.99
2023-04-02T21:07:12.166Z,81.21
2023-04-02T21:09:39.846Z,80.91
2023-04-02T21:12:07.393Z,81.17
2023-04-02T21:14:38.329Z,81.60
2023-04-02T21:17:07.155Z,82.10
2023-04-02T21:19:34.751Z,82.13
2023-04-02T21:22:03.221Z,83.27
2023-04-02T21:24:33.790Z,82.21
2023-04-02T21:27:03.143Z,82.15
2023-04-02T21:29:29.680Z,81.94
2023-04-02T21:31:57.469Z,83.85
2023-04-02T21:34:24.016Z,82.51
2023-04-02T21:36:56.408Z,82.80
2023-04-02T21:39:23.912Z,83.26
2023-04-02T21:41:55.965Z,83.46
2023-04-02T21:44:26.932Z,83.55
2023-04-02T21:46:55.600Z,83.74
2023-04-02T21:49:32.801Z,83.61
2023-04-02T21:52:02.766Z,84.51
2023-04-02T21:54:29.833Z,84.28
2023-04-02T21:56:57.055Z,84.85
2023-04-02T21:59:24.329Z,85.07
2023-04-02T22:01:52.632Z,84.75
2023-04-02T22:04:22.208Z,85.38
2023-04-02T22:06:51.622Z,85.79
2023-04-02T22:09:26.393Z,85.16
2023-04-02T22:11:58.267Z,86.55
2023-04-02T22:14:26.047Z,86.04
2023-04-02T22:17:06.648Z,85.83
2023-04-02T22:19:33.297Z,87.02
2023-04-02T22:22:00.521Z,86.80
2023-04-02T22:24:33.351Z,86.69
2023-04-02T22:27:01.283Z,87.12
2023-04-02T22:29:28.312Z,87.18
2023-04-02T22:31:58.114Z,87.81
2023-04-02T22:34:24.624Z,87.53
2023-04-02T22:36:52.306Z,89.13
2023-04-02T22:39:18.374Z,87.45
2023-04-02T22:41:45.044Z,87.70
2023-04-02T22:44:15.036Z,86.86
2023-04-02T22:46:41.848Z,87.72
2023-04-02T22:49:08.384Z,87.95
2023-04-02T22:51:34.893Z,88.48
2023-04-02T22:54:01.221Z,88.99
2023-04-02T22:56:31.321Z,89.31
2023-04-02T22:58:57.363Z,89.25
2023-04-02T23:01:30.071Z,89.54
2023-04-02T23:03:56.338Z,89.53
2023-04-02T23:06:23.871Z,89.98
2023-04-02T23:08:50.656Z,89.93
2023-04-02T23:11:23.103Z,90.01
2023-04-02T23:13:51.083Z,90.86
2023-04-02T23:16:18.486Z,90.31
2023-04-02T23:18:47.213Z,91.01
2023-04-02T23:21:17.235Z,91.47
2023-04-02T23:23:43.972Z,90.68
2023-04-02T23:26:21.303Z,91.30
2023-04-02T23:28:48.232Z,91.34
2023-04-02T23:31:16.999Z,91.53
2023-04-02T23:33:43.592Z,91.29
2023-04-02T23:36:17.567Z,91.49
2023-04-02T23:38:43.729Z,91.63
2023-04-02T23:41:14.076Z,91.25
2023-04-02T23:43:40.318Z,90.96
2023-04-02T23:46:06.878Z,91.49
2023-04-02T23:48:33.010Z,91.46
2023-04-02T23:50:59.749Z,91.62
2023-04-02T23:53:26.234Z,92.17
2023-04-02T23:55:52.583Z,91.43
2023-04-02T23:58:19.309Z,92.04
